Pernik, Bulgaria
Current Conditions -  °F | °C
As of 7:00 PM on Saturday 25 Oct 2014 (Local Time) from LBSF Reporting Station
Light Snow Light Snow  
Wind Chill: 27°   Ceiling: 4400
Heat Index: 34°   Visibility: 6mi
Dew Point: 27°   Wind: 9mph
Humidity: 75%   Direction: 10°N
Pressure: 30.15"   Gusts: NA
Location:  42.61°N, 23.03°E
Report Text: LBSF 251600Z 01004MPS 340V040 9999 -SN FEW026 SCT033 OVC044 01/M03 Q1021 NOSIG
Loading
Personal Weather Stations






























Interactive Weather Map
Tropical Storm Tracking
New forecast layout! Learn more

10-Day Weather Forecast

Advertisements
Track Severe Weather on mobile